Time;durP1;ratioP1;P1;durP2;ratioP2;P2;SDS_P1;SDS_P2;PMS_P1;PMS_P2;Temp;Humidity;BMP_temperature;BMP_pressure;BME280_temperature;BME280_humidity;BME280_pressure;Samples;Min_cycle;Max_cycle;Signal;HPM_P1;HPM_P2
2023/05/01 00:01:14;;;;;;;10.13;5.00;;;6.60;99.90;;;;;;5074594;28;20189;-54
2023/05/01 00:03:41;;;;;;;7.30;4.87;;;6.60;99.90;;;;;;5080910;28;20196;-54
2023/05/01 00:06:07;;;;;;;9.27;5.50;;;6.60;99.90;;;;;;5073266;28;20190;-51
2023/05/01 00:08:35;;;;;;;7.27;5.50;;;6.50;99.90;;;;;;5081934;28;20277;-56
2023/05/01 00:11:08;;;;;;;8.37;5.33;;;6.50;99.90;;;;;;5059815;28;20220;-53
2023/05/01 00:13:35;;;;;;;8.33;5.10;;;6.50;99.90;;;;;;5076243;28;20201;-55
2023/05/01 00:16:08;;;;;;;6.30;4.60;;;6.50;99.90;;;;;;5080571;28;20198;-55
2023/05/01 00:18:36;;;;;;;7.57;4.47;;;6.40;99.90;;;;;;5069399;28;20218;-51
2023/05/01 00:21:03;;;;;;;6.40;5.10;;;6.40;99.90;;;;;;5076297;28;20561;-55
2023/05/01 00:23:30;;;;;;;8.27;4.70;;;6.40;99.90;;;;;;5084182;28;20190;-52
2023/05/01 00:25:57;;;;;;;7.20;4.93;;;6.40;99.90;;;;;;5066699;28;20200;-51
2023/05/01 00:28:24;;;;;;;6.33;4.87;;;6.40;99.90;;;;;;5070848;28;20292;-49
2023/05/01 00:30:52;;;;;;;7.87;5.23;;;6.40;99.90;;;;;;5079384;28;20210;-53
2023/05/01 00:33:19;;;;;;;8.27;5.30;;;6.30;99.90;;;;;;5067815;28;20310;-51
2023/05/01 00:35:48;;;;;;;9.60;5.23;;;6.30;99.90;;;;;;5082050;28;20237;-51
2023/05/01 00:38:15;;;;;;;10.63;5.33;;;6.30;99.90;;;;;;5079704;28;20599;-54
2023/05/01 00:40:43;;;;;;;6.10;4.93;;;6.20;99.90;;;;;;5082168;28;20204;-50
2023/05/01 00:43:11;;;;;;;7.50;4.70;;;6.20;99.90;;;;;;5049639;28;20311;-56
2023/05/01 00:45:37;;;;;;;5.80;4.90;;;6.20;99.90;;;;;;5076296;28;20264;-51
2023/05/01 00:48:05;;;;;;;6.53;4.30;;;6.10;99.90;;;;;;5065654;28;20247;-54
2023/05/01 00:50:32;;;;;;;8.80;5.20;;;6.10;99.90;;;;;;5082577;28;20601;-54
2023/05/01 00:53:00;;;;;;;4.57;4.00;;;6.10;99.90;;;;;;5080985;28;20205;-52
2023/05/01 00:55:27;;;;;;;5.13;4.10;;;6.10;99.90;;;;;;5083379;28;20218;-56
2023/05/01 00:57:56;;;;;;;8.27;5.40;;;6.10;99.90;;;;;;5059363;28;20309;-53
2023/05/01 01:00:23;;;;;;;7.20;4.00;;;6.00;99.90;;;;;;5066647;28;20258;-53
2023/05/01 01:02:50;;;;;;;5.53;4.23;;;6.00;99.90;;;;;;5070397;28;20599;-54
2023/05/01 01:05:19;;;;;;;7.23;4.70;;;6.00;99.90;;;;;;5081308;28;20219;-53
2023/05/01 01:07:53;;;;;;;5.63;4.50;;;6.00;99.90;;;;;;5083207;28;20237;-50
2023/05/01 01:10:30;;;;;;;6.33;4.60;;;6.00;99.90;;;;;;5076813;28;21003;-54
2023/05/01 01:13:05;;;;;;;7.47;4.03;;;5.90;99.90;;;;;;5060042;28;20304;-52
2023/05/01 01:15:37;;;;;;;7.90;4.73;;;5.90;99.90;;;;;;5079473;28;20741;-53
2023/05/01 01:18:09;;;;;;;4.50;3.97;;;5.90;99.90;;;;;;5072091;28;20838;-55
2023/05/01 01:20:44;;;;;;;7.20;4.37;;;5.90;99.90;;;;;;5082349;28;20197;-54
2023/05/01 01:23:36;;;;;;;5.97;4.10;;;5.90;99.90;;;;;;5073402;28;20188;-56
2023/05/01 01:26:12;;;;;;;5.43;4.17;;;5.80;99.90;;;;;;5076623;28;20202;-51
2023/05/01 01:29:02;;;;;;;6.33;3.37;;;5.80;99.90;;;;;;5054182;28;21036;-54
2023/05/01 01:31:34;;;;;;;5.47;4.20;;;5.90;99.90;;;;;;5069443;28;20619;-54
2023/05/01 01:34:08;;;;;;;5.93;3.70;;;5.80;99.90;;;;;;5072291;28;20244;-50
2023/05/01 01:36:40;;;;;;;5.53;4.13;;;5.70;99.90;;;;;;5079243;28;20587;-52
2023/05/01 01:39:16;;;;;;;5.73;3.73;;;5.70;99.90;;;;;;5070741;28;20198;-52
2023/05/01 01:41:50;;;;;;;4.90;3.63;;;5.70;99.90;;;;;;5074331;28;20197;-52
2023/05/01 01:44:22;;;;;;;6.87;4.20;;;5.60;99.90;;;;;;5049721;28;20193;-56
2023/05/01 01:46:52;;;;;;;6.63;4.20;;;5.60;99.90;;;;;;5065673;28;20218;-54
2023/05/01 01:49:24;;;;;;;6.27;3.73;;;5.60;99.90;;;;;;5078743;28;20182;-52
2023/05/01 01:51:54;;;;;;;3.97;3.57;;;5.60;99.90;;;;;;5073488;28;20229;-53
2023/05/01 01:54:26;;;;;;;8.00;4.00;;;5.60;99.90;;;;;;5072750;28;20277;-56
2023/05/01 01:56:55;;;;;;;4.37;3.57;;;5.60;99.90;;;;;;5076074;28;20221;-54
2023/05/01 01:59:25;;;;;;;4.57;3.87;;;5.60;99.90;;;;;;5062884;28;20209;-51
2023/05/01 02:01:54;;;;;;;4.93;3.30;;;5.60;99.90;;;;;;5081590;28;20700;-53
2023/05/01 02:04:25;;;;;;;5.07;3.50;;;5.60;99.90;;;;;;5081432;28;20991;-54
2023/05/01 02:06:55;;;;;;;5.57;3.53;;;5.50;99.90;;;;;;5078410;28;20376;-49
2023/05/01 02:09:24;;;;;;;6.07;2.90;;;5.50;99.90;;;;;;5076601;28;20277;-50
2023/05/01 02:11:53;;;;;;;3.87;3.47;;;5.50;99.90;;;;;;5079650;28;20289;-51
2023/05/01 02:14:22;;;;;;;5.17;3.63;;;5.50;99.90;;;;;;5081443;28;20231;-54
2023/05/01 02:16:50;;;;;;;8.20;3.80;;;5.50;99.90;;;;;;5064865;28;20222;-53
2023/05/01 02:19:20;;;;;;;4.40;3.37;;;5.40;99.90;;;;;;5075791;28;20239;-52
2023/05/01 02:21:49;;;;;;;4.97;3.47;;;5.50;99.90;;;;;;5079716;28;20194;-51
2023/05/01 02:24:17;;;;;;;7.60;3.77;;;5.40;99.90;;;;;;5070455;28;20212;-51
2023/05/01 02:26:54;;;;;;;5.47;3.60;;;5.40;99.90;;;;;;5084000;28;20702;-51
2023/05/01 02:29:21;;;;;;;5.00;3.43;;;5.40;99.90;;;;;;5080494;28;20186;-53
2023/05/01 02:31:48;;;;;;;6.63;3.20;;;5.30;99.90;;;;;;5057226;28;20207;-50
2023/05/01 02:34:15;;;;;;;6.57;3.97;;;5.30;99.90;;;;;;5072744;28;20194;-54
2023/05/01 02:36:43;;;;;;;3.90;3.50;;;5.30;99.90;;;;;;5077147;28;20253;-55
2023/05/01 02:39:11;;;;;;;5.40;3.40;;;5.30;99.90;;;;;;5067804;28;20206;-55
2023/05/01 02:41:39;;;;;;;4.80;3.97;;;5.30;99.90;;;;;;5084683;28;20243;-54
2023/05/01 02:44:09;;;;;;;4.37;3.47;;;5.30;99.90;;;;;;5082370;28;20194;-53
2023/05/01 02:46:38;;;;;;;4.63;3.63;;;5.30;99.90;;;;;;5084877;28;20296;-51
2023/05/01 02:49:07;;;;;;;5.43;3.10;;;5.30;99.90;;;;;;5048394;28;20484;-52
2023/05/01 02:51:37;;;;;;;4.67;3.23;;;5.20;99.90;;;;;;5076262;28;20929;-55
2023/05/01 02:54:04;;;;;;;9.00;3.17;;;5.20;99.90;;;;;;5073416;28;20207;-56
2023/05/01 02:56:33;;;;;;;8.00;3.60;;;5.20;99.90;;;;;;5084045;28;20699;-54
2023/05/01 02:58:59;;;;;;;7.93;3.33;;;5.20;99.90;;;;;;5082523;28;20190;-50
2023/05/01 03:01:26;;;;;;;4.33;3.43;;;5.20;99.90;;;;;;5085294;28;20193;-56
2023/05/01 03:03:53;;;;;;;5.47;3.30;;;5.20;99.90;;;;;;5047847;28;20312;-49
2023/05/01 03:06:20;;;;;;;4.80;3.60;;;5.10;99.90;;;;;;5075864;28;20217;-51
2023/05/01 03:08:47;;;;;;;6.93;3.47;;;5.10;99.90;;;;;;5077133;28;20206;-53
2023/05/01 03:11:14;;;;;;;6.53;3.10;;;5.20;99.90;;;;;;5081368;28;20194;-56
2023/05/01 03:13:43;;;;;;;4.60;3.50;;;5.10;99.90;;;;;;5085686;28;20305;-53
2023/05/01 03:16:10;;;;;;;4.20;3.40;;;5.10;99.90;;;;;;5077398;28;20915;-54
2023/05/01 03:18:37;;;;;;;6.20;3.37;;;5.10;99.90;;;;;;5054966;28;20208;-51
2023/05/01 03:21:04;;;;;;;4.67;4.10;;;5.10;99.90;;;;;;5069324;28;20209;-55
2023/05/01 03:23:31;;;;;;;5.63;3.70;;;5.10;99.90;;;;;;5082873;28;20385;-56
2023/05/01 03:25:58;;;;;;;4.90;3.00;;;5.10;99.90;;;;;;5075548;28;20202;-53
2023/05/01 03:28:25;;;;;;;7.05;3.83;;;5.10;99.90;;;;;;5082533;28;20454;-51
2023/05/01 03:30:53;;;;;;;6.63;3.40;;;5.20;99.90;;;;;;5077141;28;20202;-56
2023/05/01 03:33:21;;;;;;;5.10;3.53;;;5.10;99.90;;;;;;5054051;28;20229;-56
2023/05/01 03:35:48;;;;;;;6.47;3.67;;;5.10;99.90;;;;;;5071318;28;20508;-55
2023/05/01 03:38:16;;;;;;;5.88;3.78;;;5.30;99.90;;;;;;5084254;28;20466;-53
2023/05/01 03:41:18;;;;;;;4.47;3.90;;;5.30;99.90;;;;;;5048197;28;20479;-52
2023/05/01 03:44:04;;;;;;;4.13;3.73;;;5.50;99.90;;;;;;5069761;28;20212;-51
2023/05/01 03:46:40;;;;;;;4.37;3.20;;;5.40;99.90;;;;;;5075169;28;20728;-52
2023/05/01 03:49:10;;;;;;;4.80;3.23;;;5.30;99.90;;;;;;5055122;28;20212;-51
2023/05/01 03:51:46;;;;;;;5.33;3.40;;;5.20;99.90;;;;;;5075331;28;20565;-54
2023/05/01 03:54:13;;;;;;;4.63;3.40;;;5.20;99.90;;;;;;5078961;28;20281;-54
2023/05/01 03:57:11;;;;;;;4.73;2.90;;;5.20;99.90;;;;;;5061516;28;20210;-54
2023/05/01 03:59:38;;;;;;;3.90;3.03;;;5.20;99.90;;;;;;5076115;28;20248;-50
2023/05/01 04:02:07;;;;;;;4.77;3.27;;;5.20;99.90;;;;;;5070063;28;20279;-53
2023/05/01 04:04:37;;;;;;;8.53;3.17;;;5.20;99.90;;;;;;5050018;28;20214;-55
2023/05/01 04:07:04;;;;;;;4.77;3.30;;;5.20;99.90;;;;;;5071478;28;20408;-53
2023/05/01 04:09:31;;;;;;;4.17;2.60;;;5.20;99.90;;;;;;5079096;28;20706;-55
2023/05/01 04:11:58;;;;;;;4.73;2.90;;;5.20;99.90;;;;;;5070166;28;20353;-51
2023/05/01 04:14:26;;;;;;;4.43;2.83;;;5.20;99.90;;;;;;5062049;28;20207;-54
2023/05/01 04:16:54;;;;;;;5.63;3.30;;;5.20;99.90;;;;;;5063796;28;20271;-53
2023/05/01 04:19:22;;;;;;;3.00;2.80;;;5.20;99.90;;;;;;5061971;28;20722;-56
2023/05/01 04:21:53;;;;;;;4.57;3.23;;;5.20;99.90;;;;;;5073740;28;20186;-55
2023/05/01 04:24:20;;;;;;;4.90;2.83;;;5.20;99.90;;;;;;5083024;28;20578;-51
2023/05/01 04:26:47;;;;;;;4.03;3.27;;;5.30;99.90;;;;;;5073830;28;20240;-49
2023/05/01 04:29:14;;;;;;;6.47;2.93;;;5.30;99.90;;;;;;5065500;28;20214;-52
2023/05/01 04:31:42;;;;;;;5.60;2.90;;;5.30;99.90;;;;;;5082003;28;20225;-52
2023/05/01 04:34:09;;;;;;;6.20;3.07;;;5.40;99.90;;;;;;5080301;28;20192;-55
2023/05/01 04:37:00;;;;;;;3.23;2.93;;;5.40;99.90;;;;;;5058278;28;20318;-51
2023/05/01 04:39:29;;;;;;;6.60;3.37;;;5.40;99.90;;;;;;5071427;28;20209;-53
2023/05/01 04:41:57;;;;;;;4.50;3.07;;;5.50;99.90;;;;;;5064460;28;20286;-50
2023/05/01 04:44:46;;;;;;;6.53;2.87;;;5.50;99.90;;;;;;5062099;28;20201;-53
2023/05/01 04:47:14;;;;;;;4.10;3.20;;;5.50;99.90;;;;;;5078830;28;20214;-56
2023/05/01 04:49:41;;;;;;;3.97;3.23;;;5.50;99.90;;;;;;5081673;28;20190;-50
2023/05/01 04:52:09;;;;;;;4.47;3.00;;;5.60;99.90;;;;;;5059374;28;20304;-55
2023/05/01 04:54:49;;;;;;;4.90;2.80;;;5.60;99.90;;;;;;5065069;28;20331;-49
2023/05/01 04:57:16;;;;;;;5.97;3.40;;;5.60;99.90;;;;;;5068348;28;20286;-51
2023/05/01 04:59:43;;;;;;;5.13;3.13;;;5.70;99.90;;;;;;5079506;28;20194;-55
2023/05/01 05:02:13;;;;;;;7.17;3.40;;;5.70;99.90;;;;;;5077555;28;20291;-52
2023/05/01 05:04:40;;;;;;;6.07;3.27;;;5.80;99.90;;;;;;5083067;28;20194;-50
2023/05/01 05:07:08;;;;;;;5.57;3.30;;;5.90;99.90;;;;;;5056980;28;20352;-53
2023/05/01 05:10:04;;;;;;;6.23;3.27;;;5.90;99.90;;;;;;5063747;28;20197;-52
2023/05/01 05:12:31;;;;;;;7.27;2.90;;;6.00;99.90;;;;;;5074060;28;20216;-55
2023/05/01 05:14:58;;;;;;;4.17;2.70;;;6.00;99.90;;;;;;5078595;28;20963;-54
2023/05/01 05:17:26;;;;;;;5.20;3.27;;;6.10;99.90;;;;;;5076104;28;20229;-53
2023/05/01 05:19:53;;;;;;;3.40;3.00;;;6.20;99.90;;;;;;5078635;28;20198;-54
2023/05/01 05:22:22;;;;;;;5.23;3.27;;;6.20;99.90;;;;;;5054949;28;20193;-49
2023/05/01 05:25:09;;;;;;;4.73;3.10;;;6.30;99.90;;;;;;5067075;28;20210;-55
2023/05/01 05:27:37;;;;;;;7.73;3.40;;;6.40;99.90;;;;;;5074006;28;20235;-55
2023/05/01 05:30:05;;;;;;;6.47;3.07;;;6.40;99.90;;;;;;5069569;28;20279;-51
2023/05/01 05:32:34;;;;;;;5.13;3.23;;;6.50;99.90;;;;;;5072595;28;20312;-55
2023/05/01 05:35:01;;;;;;;4.77;3.00;;;6.50;99.90;;;;;;5089976;28;20196;-52
2023/05/01 05:37:29;;;;;;;6.23;3.00;;;6.60;99.90;;;;;;5072419;28;20781;-52
2023/05/01 05:39:56;;;;;;;7.03;3.13;;;6.70;99.90;;;;;;5043857;28;20321;-55
2023/05/01 05:42:24;;;;;;;5.70;3.00;;;6.70;99.90;;;;;;5079661;28;20194;-51
2023/05/01 05:44:52;;;;;;;3.60;3.27;;;6.80;99.90;;;;;;5071885;28;20202;-51
2023/05/01 05:47:18;;;;;;;4.50;3.13;;;6.90;99.90;;;;;;5074173;28;20300;-50
2023/05/01 05:49:45;;;;;;;3.33;2.93;;;7.00;99.90;;;;;;5066265;28;20657;-54
2023/05/01 05:52:12;;;;;;;4.27;3.10;;;7.10;99.90;;;;;;5071558;28;20207;-53
2023/05/01 05:54:40;;;;;;;4.77;2.80;;;7.10;99.90;;;;;;5058881;28;20220;-50
2023/05/01 05:57:08;;;;;;;5.57;3.00;;;7.20;99.90;;;;;;5067861;28;20236;-55
2023/05/01 05:59:38;;;;;;;5.20;2.70;;;7.30;99.90;;;;;;5073063;28;20213;-53
2023/05/01 06:02:05;;;;;;;5.43;2.70;;;7.40;99.90;;;;;;5084031;28;20943;-50
2023/05/01 06:04:32;;;;;;;3.97;2.73;;;7.50;99.90;;;;;;5065485;28;20201;-56
2023/05/01 06:06:59;;;;;;;7.93;2.70;;;7.60;99.90;;;;;;5064398;28;20216;-55
2023/05/01 06:09:26;;;;;;;3.77;2.73;;;7.70;99.90;;;;;;5056671;28;20198;-50
2023/05/01 06:11:55;;;;;;;3.63;2.70;;;7.80;99.90;;;;;;5065870;28;20297;-55
2023/05/01 06:14:22;;;;;;;3.10;2.77;;;7.90;99.90;;;;;;5074431;28;20297;-52
2023/05/01 06:16:49;;;;;;;3.87;2.83;;;8.00;99.90;;;;;;5071768;28;20232;-52
2023/05/01 06:19:17;;;;;;;5.60;2.70;;;8.10;99.90;;;;;;5065198;28;20676;-53
2023/05/01 06:21:45;;;;;;;6.37;2.67;;;8.30;99.90;;;;;;5073436;28;20201;-53
2023/05/01 06:24:12;;;;;;;2.90;2.70;;;8.40;99.90;;;;;;5066373;28;20213;-49
2023/05/01 06:26:46;;;;;;;6.60;2.70;;;8.50;99.90;;;;;;5071870;28;20950;-52
2023/05/01 06:29:15;;;;;;;5.23;2.77;;;8.60;99.90;;;;;;5064576;28;20238;-51
2023/05/01 06:31:42;;;;;;;3.37;2.60;;;8.70;99.90;;;;;;5056829;28;20304;-50
2023/05/01 06:34:09;;;;;;;4.43;2.47;;;8.90;99.90;;;;;;5063367;28;20225;-49
2023/05/01 06:36:46;;;;;;;5.10;2.63;;;9.00;99.90;;;;;;5079904;28;20735;-53
2023/05/01 06:39:13;;;;;;;6.13;2.43;;;9.10;99.90;;;;;;5072794;28;20719;-52
2023/05/01 06:41:40;;;;;;;4.13;2.33;;;9.30;99.90;;;;;;5057630;28;20293;-54
2023/05/01 06:44:06;;;;;;;4.70;2.40;;;9.40;99.90;;;;;;5068064;28;20263;-54
2023/05/01 06:46:34;;;;;;;3.77;2.70;;;9.50;99.90;;;;;;5057679;28;20325;-53
2023/05/01 06:49:02;;;;;;;2.63;2.20;;;9.70;99.90;;;;;;5084121;28;20554;-50
2023/05/01 06:51:30;;;;;;;4.73;2.30;;;9.80;99.90;;;;;;5074242;28;20198;-53
2023/05/01 06:53:57;;;;;;;4.17;2.33;;;9.90;99.90;;;;;;5074299;28;20224;-55
2023/05/01 06:56:24;;;;;;;4.23;2.70;;;10.00;99.90;;;;;;5042136;28;20222;-54
2023/05/01 06:58:51;;;;;;;3.80;2.40;;;10.10;99.90;;;;;;5066735;28;20198;-51
2023/05/01 07:01:17;;;;;;;6.27;2.53;;;10.30;99.90;;;;;;5073867;28;20923;-54
2023/05/01 07:03:46;;;;;;;5.90;2.60;;;10.30;99.90;;;;;;5085885;28;20201;-54
2023/05/01 07:06:13;;;;;;;4.77;2.30;;;10.50;99.90;;;;;;5077570;28;20205;-52
2023/05/01 07:08:40;;;;;;;3.87;2.40;;;10.60;99.90;;;;;;5067128;28;20198;-52
2023/05/01 07:11:07;;;;;;;3.10;2.20;;;10.60;99.90;;;;;;5064925;28;20230;-54
2023/05/01 07:13:34;;;;;;;2.50;1.93;;;10.80;99.90;;;;;;5046528;28;20237;-54
2023/05/01 07:16:02;;;;;;;5.37;2.30;;;10.90;99.90;;;;;;5064899;28;20272;-52
2023/05/01 07:18:28;;;;;;;5.43;2.10;;;11.00;99.90;;;;;;5078073;28;20202;-54
2023/05/01 07:20:56;;;;;;;5.97;2.13;;;11.10;99.90;;;;;;5067260;28;20226;-52
2023/05/01 07:23:24;;;;;;;4.57;2.60;;;11.20;99.90;;;;;;5077480;28;20197;-50
2023/05/01 07:25:50;;;;;;;3.90;2.17;;;11.30;99.90;;;;;;5076507;28;20189;-49
2023/05/01 07:28:19;;;;;;;4.27;1.93;;;11.40;99.90;;;;;;5047085;28;20228;-53
2023/05/01 07:30:45;;;;;;;3.03;2.40;;;11.50;99.90;;;;;;5061284;28;20209;-50
2023/05/01 07:33:13;;;;;;;3.60;1.90;;;11.70;99.90;;;;;;5081432;28;20210;-49
2023/05/01 07:35:40;;;;;;;3.07;2.00;;;11.80;99.90;;;;;;5073879;28;20194;-51
2023/05/01 07:38:08;;;;;;;4.20;2.10;;;11.90;99.90;;;;;;5071289;28;20226;-53
2023/05/01 07:40:35;;;;;;;4.07;2.30;;;11.90;99.90;;;;;;5072258;28;20191;-53
2023/05/01 07:43:03;;;;;;;2.97;2.27;;;12.10;99.90;;;;;;5053197;28;20194;-54
2023/05/01 07:45:30;;;;;;;4.03;2.57;;;12.20;99.90;;;;;;5076071;28;20942;-50
2023/05/01 07:47:57;;;;;;;3.07;2.23;;;12.20;99.90;;;;;;5071732;28;20216;-49
2023/05/01 07:50:25;;;;;;;4.93;2.27;;;12.30;99.60;;;;;;5077066;28;20201;-49
2023/05/01 07:52:52;;;;;;;5.20;2.53;;;12.30;99.10;;;;;;5073729;28;20202;-51
2023/05/01 07:55:21;;;;;;;5.07;1.80;;;12.40;98.50;;;;;;5069114;28;20204;-51
2023/05/01 07:57:49;;;;;;;2.03;1.90;;;12.50;98.30;;;;;;5057200;28;20210;-52
2023/05/01 08:00:16;;;;;;;4.07;2.23;;;12.50;98.10;;;;;;5073902;28;20332;-48
2023/05/01 08:02:43;;;;;;;3.87;2.37;;;12.60;97.80;;;;;;5075037;28;20201;-49
2023/05/01 08:05:10;;;;;;;3.63;2.10;;;12.70;97.30;;;;;;5072309;28;20198;-53
2023/05/01 08:07:37;;;;;;;5.40;1.80;;;12.90;96.70;;;;;;5068952;28;20228;-50
2023/05/01 08:10:05;;;;;;;2.20;2.00;;;13.00;96.70;;;;;;5069444;28;20190;-49
2023/05/01 08:12:33;;;;;;;3.83;1.80;;;13.00;95.80;;;;;;5083546;28;20251;-54
2023/05/01 08:15:00;;;;;;;2.60;1.90;;;13.10;95.80;;;;;;5054382;28;20218;-52
2023/05/01 08:17:27;;;;;;;3.40;1.90;;;13.20;95.10;;;;;;5077198;28;20848;-55
2023/05/01 08:19:55;;;;;;;4.10;1.80;;;13.20;94.30;;;;;;5076587;28;20187;-51
2023/05/01 08:22:22;;;;;;;4.37;1.73;;;13.20;94.10;;;;;;5062896;28;20197;-50
2023/05/01 08:24:50;;;;;;;3.53;1.63;;;13.30;93.40;;;;;;5065232;28;20186;-52
2023/05/01 08:27:17;;;;;;;6.37;2.17;;;13.30;93.30;;;;;;5066734;28;20223;-54
2023/05/01 08:29:45;;;;;;;3.17;2.10;;;13.40;92.90;;;;;;5056526;28;20194;-48
2023/05/01 08:32:12;;;;;;;3.17;1.80;;;13.40;92.30;;;;;;5062047;28;20206;-56
2023/05/01 08:34:39;;;;;;;2.77;1.83;;;13.50;92.70;;;;;;5073062;28;20907;-49
2023/05/01 08:37:05;;;;;;;2.60;1.50;;;13.50;92.70;;;;;;5064373;28;20256;-56
2023/05/01 08:39:32;;;;;;;4.30;1.87;;;13.60;92.90;;;;;;5071839;28;20905;-51
2023/05/01 08:41:59;;;;;;;5.40;2.20;;;13.60;92.60;;;;;;5076443;28;20193;-49
2023/05/01 08:44:27;;;;;;;4.47;2.17;;;13.70;92.40;;;;;;5059309;28;20210;-48
2023/05/01 08:47:05;;;;;;;2.67;2.00;;;13.80;92.60;;;;;;5080988;28;20213;-54
2023/05/01 08:49:33;;;;;;;4.60;2.27;;;13.90;92.50;;;;;;5059427;28;20205;-54
2023/05/01 08:52:02;;;;;;;5.03;2.20;;;14.00;92.90;;;;;;5067315;28;20495;-53
2023/05/01 08:54:31;;;;;;;4.83;2.50;;;14.10;92.80;;;;;;5063409;28;20221;-48
2023/05/01 08:57:02;;;;;;;5.50;2.37;;;14.10;92.80;;;;;;5071942;28;20214;-48
2023/05/01 08:59:30;;;;;;;2.47;2.07;;;14.20;92.40;;;;;;5053496;28;20214;-49
2023/05/01 09:02:01;;;;;;;5.03;2.10;;;14.30;92.60;;;;;;5070711;28;21147;-47
2023/05/01 09:04:31;;;;;;;3.37;2.10;;;14.30;92.50;;;;;;5055234;28;20923;-53
2023/05/01 09:07:00;;;;;;;2.73;2.23;;;14.50;92.20;;;;;;5076214;28;20218;-56
2023/05/01 09:09:27;;;;;;;2.23;2.00;;;14.40;91.70;;;;;;5061352;28;20198;-52
2023/05/01 09:11:57;;;;;;;4.07;1.93;;;14.30;91.80;;;;;;5072045;28;20275;-56
2023/05/01 09:14:23;;;;;;;3.60;2.13;;;14.40;92.00;;;;;;5074294;28;20216;-54
2023/05/01 09:16:51;;;;;;;3.87;2.27;;;14.50;91.90;;;;;;5055145;28;20691;-54
2023/05/01 09:19:20;;;;;;;3.53;2.60;;;14.60;91.90;;;;;;5060182;28;20593;-50
2023/05/01 09:22:10;;;;;;;5.43;3.03;;;14.60;91.30;;;;;;5067730;28;20206;-54
2023/05/01 09:24:38;;;;;;;3.10;2.33;;;14.70;91.40;;;;;;5076339;28;20636;-49
2023/05/01 09:27:06;;;;;;;2.97;2.13;;;14.80;91.80;;;;;;5076222;28;20717;-55
2023/05/01 09:29:40;;;;;;;3.40;2.10;;;;;;;;;;5077032;28;20273;-54
2023/05/01 09:32:15;;;;;;;4.23;2.50;;;15.00;90.50;;;;;;5054467;28;20223;-55
2023/05/01 09:34:44;;;;;;;2.87;2.50;;;15.10;91.60;;;;;;5068707;28;20228;-48
2023/05/01 09:37:13;;;;;;;4.00;2.57;;;15.10;91.30;;;;;;5082176;28;20218;-54
2023/05/01 09:39:40;;;;;;;4.13;2.20;;;15.30;92.20;;;;;;5074012;28;20194;-52
2023/05/01 09:42:08;;;;;;;3.93;2.07;;;15.30;91.00;;;;;;5075436;28;20667;-55
2023/05/01 09:44:44;;;;;;;3.17;1.77;;;15.40;88.80;;;;;;5075183;28;20277;-53
2023/05/01 09:47:12;;;;;;;2.60;1.90;;;15.40;96.60;;;;;;5045286;28;20313;-55
2023/05/01 09:49:48;;;;;;;4.23;2.37;;;15.50;96.90;;;;;;5075740;28;20205;-51
2023/05/01 09:52:15;;;;;;;4.30;2.67;;;15.40;99.90;;;;;;5073085;28;20642;-58
2023/05/01 09:54:45;;;;;;;3.67;2.47;;;15.50;86.60;;;;;;5075016;28;20239;-51
2023/05/01 09:57:12;;;;;;;2.40;2.10;;;15.60;87.20;;;;;;5065164;28;20226;-56
2023/05/01 09:59:39;;;;;;;3.10;2.03;;;15.60;87.00;;;;;;5057453;28;20183;-55
2023/05/01 10:02:06;;;;;;;7.83;2.20;;;15.50;87.40;;;;;;5075426;28;20874;-57
2023/05/01 10:04:34;;;;;;;3.40;2.07;;;15.50;85.80;;;;;;5067443;28;20825;-51
2023/05/01 10:07:13;;;;;;;3.70;1.93;;;15.60;85.20;;;;;;5073001;28;20578;-47
2023/05/01 10:09:41;;;;;;;4.30;1.80;;;15.70;80.80;;;;;;5062856;28;20209;-52
2023/05/01 10:12:08;;;;;;;3.20;1.80;;;15.60;82.50;;;;;;5056491;28;20229;-50
2023/05/01 10:14:50;;;;;;;3.97;2.10;;;15.70;83.00;;;;;;5068178;28;20396;-45
2023/05/01 10:17:18;;;;;;;5.73;2.40;;;15.90;82.20;;;;;;5065103;28;20229;-51
2023/05/01 10:19:45;;;;;;;4.43;2.47;;;15.90;81.70;;;;;;5054216;28;20224;-57
2023/05/01 10:22:13;;;;;;;3.63;1.93;;;16.00;79.70;;;;;;5070380;28;20453;-51
2023/05/01 10:24:40;;;;;;;4.40;2.00;;;;;;;;;;5083757;28;20197;-54
2023/05/01 10:27:07;;;;;;;2.77;1.73;;;16.00;77.70;;;;;;5057773;28;20217;-55
2023/05/01 10:29:36;;;;;;;5.37;2.10;;;16.20;77.50;;;;;;5078064;28;20194;-57
2023/05/01 10:32:06;;;;;;;3.70;1.77;;;16.20;75.70;;;;;;5070198;28;20186;-53
2023/05/01 10:34:37;;;;;;;2.87;2.00;;;16.20;75.40;;;;;;5050386;28;20221;-54
2023/05/01 10:37:09;;;;;;;5.27;2.00;;;16.30;76.60;;;;;;5072263;28;20211;-53
2023/05/01 10:39:37;;;;;;;4.03;1.83;;;16.40;76.80;;;;;;5064287;28;20202;-52
2023/05/01 10:42:05;;;;;;;5.20;1.90;;;16.40;75.80;;;;;;5067351;28;20918;-49
2023/05/01 10:44:33;;;;;;;2.50;1.50;;;16.50;75.30;;;;;;5075081;28;20202;-48
2023/05/01 10:47:21;;;;;;;2.63;1.77;;;16.70;72.80;;;;;;5067528;28;20210;-44
2023/05/01 10:50:05;;;;;;;3.87;1.60;;;16.70;73.30;;;;;;5049763;28;20260;-54
2023/05/01 10:53:16;;;;;;;5.03;1.63;;;16.80;70.20;;;;;;5073500;28;20557;-53
2023/05/01 10:55:46;;;;;;;3.83;2.00;;;16.90;70.10;;;;;;5059970;28;20700;-53
2023/05/01 10:58:14;;;;;;;3.00;1.60;;;17.10;86.80;;;;;;5078832;28;20280;-47
2023/05/01 11:00:41;;;;;;;3.00;2.00;;;17.10;69.60;;;;;;5065818;28;20206;-54
2023/05/01 11:03:39;;;;;;;3.10;1.53;;;17.10;70.80;;;;;;5075557;28;20195;-47
2023/05/01 11:06:06;;;;;;;3.27;1.80;;;17.10;73.10;;;;;;5056484;28;20210;-50
2023/05/01 11:08:34;;;;;;;3.23;1.70;;;17.00;75.00;;;;;;5065215;28;20337;-51
2023/05/01 11:11:39;;;;;;;2.43;1.90;;;17.00;76.20;;;;;;5068314;28;20202;-50
2023/05/01 11:14:09;;;;;;;3.60;1.73;;;17.10;75.20;;;;;;5083234;28;20225;-47
2023/05/01 11:16:45;;;;;;;2.63;2.37;;;17.00;81.70;;;;;;5073705;28;20233;-48
2023/05/01 11:19:49;;;;;;;2.97;2.30;;;17.10;75.00;;;;;;5075976;28;20197;-46
2023/05/01 11:22:16;;;;;;;3.73;2.00;;;17.60;75.90;;;;;;5049445;28;20251;-49
2023/05/01 11:24:43;;;;;;;3.93;2.00;;;17.50;69.20;;;;;;5068770;28;20198;-46
2023/05/01 11:27:14;;;;;;;4.67;1.97;;;17.30;67.20;;;;;;5083600;28;20255;-44
2023/05/01 11:29:47;;;;;;;3.63;2.30;;;17.10;67.40;;;;;;5065433;28;20212;-54
2023/05/01 11:32:19;;;;;;;3.97;2.03;;;17.20;68.20;;;;;;5083548;28;20513;-51
2023/05/01 11:34:49;;;;;;;2.53;1.70;;;17.30;68.60;;;;;;5067492;28;20230;-52
2023/05/01 11:37:16;;;;;;;3.57;1.90;;;17.40;69.40;;;;;;5051984;28;20288;-51
2023/05/01 11:39:50;;;;;;;3.53;2.30;;;17.50;69.50;;;;;;5068635;28;20442;-50
2023/05/01 11:42:21;;;;;;;4.20;1.97;;;17.60;68.50;;;;;;5077968;28;20197;-52
2023/05/01 11:45:06;;;;;;;3.33;2.23;;;17.50;66.60;;;;;;5069027;28;20190;-51
2023/05/01 11:47:34;;;;;;;4.03;2.03;;;17.40;68.20;;;;;;5071048;28;20251;-54
2023/05/01 11:50:02;;;;;;;3.43;1.83;;;17.70;69.70;;;;;;5055610;28;20213;-58
2023/05/01 11:52:29;;;;;;;6.90;2.60;;;17.90;69.00;;;;;;5055578;28;20198;-53
2023/05/01 11:54:56;;;;;;;3.80;1.97;;;18.00;69.00;;;;;;5072930;28;20668;-56
2023/05/01 11:57:23;;;;;;;2.30;2.10;;;17.90;67.20;;;;;;5071811;28;20215;-49
2023/05/01 11:59:50;;;;;;;3.10;1.80;;;17.90;66.90;;;;;;5071594;28;20207;-56
2023/05/01 12:02:20;;;;;;;4.20;1.70;;;17.70;66.20;;;;;;5064577;28;20328;-49
2023/05/01 12:04:47;;;;;;;5.13;2.00;;;17.70;67.00;;;;;;5067559;28;20178;-55
2023/05/01 12:07:23;;;;;;;2.70;1.63;;;;;;;;;;5049622;28;20308;-53
2023/05/01 12:09:51;;;;;;;2.80;1.40;;;18.20;66.70;;;;;;5081343;28;20194;-55
2023/05/01 12:12:18;;;;;;;3.70;2.07;;;18.40;67.20;;;;;;5071988;28;20226;-47
2023/05/01 12:14:45;;;;;;;1.50;1.40;;;18.30;64.40;;;;;;5068103;28;20217;-50
2023/05/01 12:17:33;;;;;;;4.00;1.83;;;18.10;63.80;;;;;;5070395;28;20334;-56
2023/05/01 12:20:01;;;;;;;2.67;1.60;;;18.20;66.00;;;;;;5078693;28;20190;-54
2023/05/01 12:22:29;;;;;;;2.70;1.83;;;18.40;65.30;;;;;;5084193;28;20991;-54
2023/05/01 12:24:56;;;;;;;3.70;1.70;;;18.60;64.40;;;;;;5062291;28;20198;-56
2023/05/01 12:27:23;;;;;;;3.23;1.87;;;18.60;65.10;;;;;;5075373;28;20212;-47
2023/05/01 12:29:51;;;;;;;2.70;2.00;;;18.80;65.00;;;;;;5065017;28;20293;-52
2023/05/01 12:32:17;;;;;;;3.10;1.80;;;18.90;65.10;;;;;;5073641;28;20217;-54
2023/05/01 12:34:45;;;;;;;2.77;1.60;;;19.10;65.30;;;;;;5077932;28;20688;-46
2023/05/01 12:37:12;;;;;;;4.33;2.20;;;19.10;65.00;;;;;;5078120;28;20221;-46
2023/05/01 12:39:43;;;;;;;3.37;2.23;;;19.10;64.30;;;;;;5055286;28;20934;-50
2023/05/01 12:42:14;;;;;;;4.03;1.57;;;19.10;64.20;;;;;;5070454;28;20991;-49
2023/05/01 12:44:42;;;;;;;4.20;1.60;;;19.20;64.10;;;;;;5058067;28;20777;-50
2023/05/01 12:47:12;;;;;;;2.83;1.73;;;19.30;63.00;;;;;;5068536;28;20214;-49
2023/05/01 12:49:39;;;;;;;2.67;1.60;;;19.40;64.90;;;;;;5072408;28;20894;-46
2023/05/01 12:52:08;;;;;;;4.40;1.90;;;19.50;62.10;;;;;;5078590;28;20214;-49
2023/05/01 12:54:37;;;;;;;3.97;1.60;;;19.30;60.00;;;;;;5063082;28;20287;-47
2023/05/01 12:57:10;;;;;;;4.30;1.97;;;19.40;62.60;;;;;;5069961;28;20313;-55
2023/05/01 12:59:40;;;;;;;5.70;1.80;;;;;;;;;;5067327;28;20194;-49
2023/05/01 13:02:09;;;;;;;3.50;1.90;;;19.80;60.50;;;;;;5072691;28;20197;-48
2023/05/01 13:04:36;;;;;;;3.07;1.80;;;;;;;;;;5077822;28;20687;-51
2023/05/01 13:07:11;;;;;;;4.90;2.30;;;;;;;;;;5079994;28;20220;-56